createdAt,value
2022-09-28T00:03:49.218Z,97453.50
2022-09-28T00:07:50.517Z,97450.00
2022-09-28T00:11:53.698Z,97467.41
2022-09-28T00:16:05.924Z,97453.53
2022-09-28T00:20:07.371Z,97455.19
2022-09-28T00:24:18.941Z,97449.09
2022-09-28T00:28:20.253Z,97454.28
2022-09-28T00:32:24.527Z,97451.81
2022-09-28T00:36:29.457Z,97447.53
2022-09-28T00:40:30.713Z,97440.66
2022-09-28T00:44:36.142Z,97450.28
2022-09-28T00:48:39.441Z,97449.34
2022-09-28T00:52:59.949Z,97444.09
2022-09-28T00:57:08.878Z,97438.03
2022-09-28T01:01:10.383Z,97431.88
2022-09-28T01:05:12.869Z,97424.03
2022-09-28T01:09:15.158Z,97418.84
2022-09-28T01:13:17.671Z,97425.72
2022-09-28T01:17:26.657Z,97417.16
2022-09-28T01:21:28.065Z,97411.03
2022-09-28T01:25:35.989Z,97425.69
2022-09-28T01:29:50.884Z,97426.41
2022-09-28T01:33:55.695Z,97426.31
2022-09-28T01:38:01.492Z,97422.72
2022-09-28T01:42:05.594Z,97423.53
2022-09-28T01:46:18.932Z,97414.91
2022-09-28T01:50:41.715Z,97404.44
2022-09-28T01:54:54.445Z,97396.59
2022-09-28T01:59:06.960Z,97392.25
2022-09-28T02:03:20.718Z,97390.47
2022-09-28T02:07:42.454Z,97378.34
2022-09-28T02:11:47.862Z,97378.34
2022-09-28T02:15:51.731Z,97383.53
2022-09-28T02:19:59.946Z,97382.75
2022-09-28T02:24:11.466Z,97381.94
2022-09-28T02:28:15.753Z,97377.78
2022-09-28T02:32:25.288Z,97371.69
2022-09-28T02:36:27.437Z,97370.78
2022-09-28T02:40:38.022Z,97378.56
2022-09-28T02:45:00.937Z,97370.78
2022-09-28T02:49:20.436Z,97369.94
2022-09-28T02:53:48.981Z,97364.81
2022-09-28T02:57:50.228Z,97366.63
2022-09-28T03:02:03.850Z,97362.34
2022-09-28T03:06:20.953Z,97367.44
2022-09-28T03:10:25.504Z,97364.00
2022-09-28T03:14:26.874Z,97367.44
2022-09-28T03:18:28.309Z,97370.88
2022-09-28T03:22:36.088Z,97378.69
2022-09-28T03:26:40.309Z,97375.22
2022-09-28T03:30:43.491Z,97383.69
2022-09-28T03:34:44.814Z,97381.91
2022-09-28T03:38:46.081Z,97384.44
2022-09-28T03:42:47.400Z,97385.22
2022-09-28T03:46:48.659Z,97386.06
2022-09-28T03:50:52.667Z,97386.19
2022-09-28T03:55:00.000Z,97387.03
2022-09-28T03:59:02.740Z,97388.72
2022-09-28T04:03:11.027Z,97388.66
2022-09-28T04:07:12.271Z,97388.59
2022-09-28T04:11:13.553Z,97392.03
2022-09-28T04:15:14.980Z,97398.25
2022-09-28T04:19:16.284Z,97393.13
2022-09-28T04:23:17.689Z,97398.41
2022-09-28T04:27:37.758Z,97399.38
2022-09-28T04:31:40.950Z,97405.41
2022-09-28T04:35:42.314Z,97390.75
2022-09-28T04:39:49.977Z,97408.06
2022-09-28T04:43:51.322Z,97406.38
2022-09-28T04:47:52.924Z,97408.06
2022-09-28T04:51:54.236Z,97398.50
2022-09-28T04:56:05.997Z,97407.13
2022-09-28T05:00:15.011Z,97413.31
2022-09-28T05:04:16.323Z,97416.22
2022-09-28T05:08:18.153Z,97417.25
2022-09-28T05:12:19.420Z,97422.53
2022-09-28T05:16:20.729Z,97422.72
2022-09-28T05:20:22.241Z,97414.31
2022-09-28T05:24:23.985Z,97417.09
2022-09-28T05:28:27.109Z,97424.31
2022-09-28T05:32:28.361Z,97423.59
2022-09-28T05:36:30.191Z,97420.47
2022-09-28T05:40:31.649Z,97421.56
2022-09-28T05:44:39.052Z,97431.22
2022-09-28T05:48:40.305Z,97425.41
2022-09-28T05:52:42.105Z,97429.97
2022-09-28T05:56:43.392Z,97437.84
2022-09-28T06:00:45.089Z,97440.47
2022-09-28T06:04:55.047Z,97440.44
2022-09-28T06:08:56.344Z,97437.03
2022-09-28T06:13:05.023Z,97446.34
2022-09-28T06:17:06.687Z,97449.69
2022-09-28T06:21:10.945Z,97456.56
2022-09-28T06:25:12.221Z,97458.28
2022-09-28T06:29:19.961Z,97461.78
2022-09-28T06:33:21.964Z,97473.69
2022-09-28T06:37:32.890Z,97470.00
2022-09-28T06:41:41.104Z,97473.25
2022-09-28T06:45:43.133Z,97474.69
2022-09-28T06:49:47.649Z,97482.19
2022-09-28T06:53:48.977Z,97489.72
2022-09-28T06:58:00.391Z,97493.84
2022-09-28T07:02:01.703Z,97514.41
2022-09-28T07:06:04.372Z,97512.47
2022-09-28T07:10:05.971Z,97524.22
2022-09-28T07:14:33.246Z,97522.16
2022-09-28T07:18:35.302Z,97526.06
2022-09-28T07:22:43.129Z,97534.06
2022-09-28T07:26:45.394Z,97533.06
2022-09-28T07:30:53.259Z,97544.28
2022-09-28T07:34:58.871Z,97550.16
2022-09-28T07:39:01.377Z,97556.97
2022-09-28T07:43:06.232Z,97558.47
2022-09-28T07:47:07.637Z,97567.75
2022-09-28T07:51:09.481Z,97572.91
2022-09-28T07:55:10.875Z,97582.66
2022-09-28T07:59:12.377Z,97584.84
2022-09-28T08:03:24.081Z,97588.31
2022-09-28T08:07:25.623Z,97581.84
2022-09-28T08:11:27.164Z,97590.47
2022-09-28T08:15:30.520Z,97592.81
2022-09-28T08:19:57.335Z,97587.97
2022-09-28T08:23:58.776Z,97595.16
2022-09-28T08:28:00.708Z,97593.38
2022-09-28T08:32:02.407Z,97598.56
2022-09-28T08:36:04.625Z,97608.97
2022-09-28T08:40:06.539Z,97605.38
2022-09-28T08:44:24.513Z,97598.31
2022-09-28T08:48:48.565Z,97608.69
2022-09-28T08:53:03.664Z,97606.41
2022-09-28T08:57:13.941Z,97612.75
2022-09-28T09:01:18.879Z,97607.38
2022-09-28T09:05:22.911Z,97611.03
2022-09-28T09:09:40.386Z,97606.56
2022-09-28T09:13:47.449Z,97614.91
2022-09-28T09:18:02.104Z,97618.31
2022-09-28T09:22:27.617Z,97616.06
2022-09-28T09:26:45.205Z,97621.19
2022-09-28T09:31:01.719Z,97620.97
2022-09-28T09:35:13.480Z,97631.03
2022-09-28T09:39:24.203Z,97622.44
2022-09-28T09:43:31.542Z,97618.53
2022-09-28T09:47:42.872Z,97624.25
2022-09-28T09:51:44.148Z,97620.00
2022-09-28T09:55:46.489Z,97623.28
2022-09-28T09:59:55.137Z,97618.84
2022-09-28T10:03:59.139Z,97620.19
2022-09-28T10:08:00.516Z,97623.09
2022-09-28T10:12:01.935Z,97607.50
2022-09-28T10:16:12.375Z,97616.19
2022-09-28T10:20:15.845Z,97620.19
2022-09-28T10:24:23.573Z,97631.91
2022-09-28T10:28:54.697Z,97627.56
2022-09-28T10:32:59.499Z,97621.34
2022-09-28T10:37:10.412Z,97623.16
2022-09-28T10:41:13.839Z,97630.91
2022-09-28T10:45:23.157Z,97627.19
2022-09-28T10:49:26.252Z,97635.22
2022-09-28T10:53:29.431Z,97638.63
2022-09-28T10:57:36.708Z,97646.81
2022-09-28T11:01:38.498Z,97645.88
2022-09-28T11:05:40.640Z,97642.38
2022-09-28T11:09:45.077Z,97638.09
2022-09-28T11:13:49.969Z,97631.75
2022-09-28T11:17:54.330Z,97632.94
2022-09-28T11:22:03.119Z,97639.38
2022-09-28T11:26:07.093Z,97630.47
2022-09-28T11:30:23.006Z,97635.16
2022-09-28T11:34:47.795Z,97630.53
2022-09-28T11:39:04.261Z,97623.34
2022-09-28T11:43:18.099Z,97625.44
2022-09-28T11:47:49.332Z,97613.84
2022-09-28T11:51:53.150Z,97608.53
2022-09-28T11:56:08.861Z,97610.53
2022-09-28T12:00:15.594Z,97611.50
2022-09-28T12:04:21.040Z,97605.88
2022-09-28T12:08:25.460Z,97605.03
2022-09-28T12:12:39.567Z,97600.97
2022-09-28T12:17:06.933Z,97602.00
2022-09-28T12:21:29.648Z,97589.66
2022-09-28T12:25:37.367Z,97598.94
2022-09-28T12:29:49.979Z,97597.13
2022-09-28T12:33:52.695Z,97593.53
2022-09-28T12:38:08.934Z,97592.22
2022-09-28T12:42:11.720Z,97606.78
2022-09-28T12:46:39.962Z,97610.59
2022-09-28T12:50:47.523Z,97594.91
2022-09-28T12:55:13.258Z,97600.22
2022-09-28T12:59:25.691Z,97593.38
2022-09-28T13:03:52.228Z,97598.34
2022-09-28T13:08:06.240Z,97588.34
2022-09-28T13:12:15.666Z,97595.91
2022-09-28T13:16:27.252Z,97593.81
2022-09-28T13:20:40.052Z,97597.38
2022-09-28T13:24:44.790Z,97594.28
2022-09-28T13:28:47.369Z,97593.69
2022-09-28T13:32:56.403Z,97592.84
2022-09-28T13:37:10.084Z,97593.66
2022-09-28T13:41:13.534Z,97591.28
2022-09-28T13:45:24.337Z,97588.66
2022-09-28T13:49:48.280Z,97588.03
2022-09-28T13:54:05.462Z,97590.56
2022-09-28T13:58:16.572Z,97587.34
2022-09-28T14:02:26.967Z,97600.72
2022-09-28T14:06:30.601Z,97590.53
2022-09-28T14:10:58.322Z,97593.75
2022-09-28T14:15:00.274Z,97585.78
2022-09-28T14:19:20.609Z,97581.28
2022-09-28T14:23:52.716Z,97598.44
2022-09-28T14:28:14.757Z,97588.28
2022-09-28T14:32:16.345Z,97594.66
2022-09-28T14:37:12.467Z,97583.16
2022-09-28T14:41:20.285Z,97583.13
2022-09-28T14:45:41.334Z,97574.47
2022-09-28T14:49:43.856Z,97587.13
2022-09-28T14:53:46.641Z,97591.53
2022-09-28T14:57:53.081Z,97597.00
2022-09-28T15:02:00.732Z,97598.09
2022-09-28T15:06:08.673Z,97589.88
2022-09-28T15:10:27.754Z,97589.97
2022-09-28T15:14:33.817Z,97592.53
2022-09-28T15:18:55.772Z,97602.22
2022-09-28T15:22:59.227Z,97596.13
2022-09-28T15:27:14.274Z,97603.41
2022-09-28T15:31:18.233Z,97601.06
2022-09-28T15:35:23.633Z,97603.59
2022-09-28T15:39:41.987Z,97598.44
2022-09-28T15:43:47.515Z,97605.13
2022-09-28T15:47:50.289Z,97599.88
2022-09-28T15:51:54.480Z,97594.97
2022-09-28T15:56:00.480Z,97598.59
2022-09-28T16:00:04.586Z,97602.69
2022-09-28T16:04:25.176Z,97605.25
2022-09-28T16:08:35.900Z,97602.63
2022-09-28T16:12:37.173Z,97604.53
2022-09-28T16:16:51.832Z,97600.88
2022-09-28T16:20:57.837Z,97598.41
2022-09-28T16:25:01.762Z,97596.56
2022-09-28T16:29:08.900Z,97605.56
2022-09-28T16:33:30.403Z,97606.75
2022-09-28T16:37:40.001Z,97609.75
2022-09-28T16:41:44.419Z,97611.03
2022-09-28T16:45:46.181Z,97622.88
2022-09-28T16:49:48.060Z,97624.75
2022-09-28T16:54:08.245Z,97629.91
2022-09-28T16:58:09.760Z,97632.91
2022-09-28T17:06:53.412Z,97643.75
2022-09-28T17:11:13.887Z,97644.56
2022-09-28T17:15:26.637Z,97647.94
2022-09-28T17:19:29.849Z,97651.34
2022-09-28T17:23:31.107Z,97644.41
2022-09-28T17:27:32.373Z,97645.16
2022-09-28T17:31:33.645Z,97654.53
2022-09-28T17:35:43.415Z,97658.56
2022-09-28T17:39:51.460Z,97659.13
2022-09-28T17:43:52.750Z,97652.75
2022-09-28T17:47:54.820Z,97660.38
2022-09-28T17:51:56.218Z,97669.78
2022-09-28T17:55:57.501Z,97670.31
2022-09-28T17:59:58.811Z,97666.63
2022-09-28T18:04:02.265Z,97671.28
2022-09-28T18:08:12.199Z,97675.09
2022-09-28T18:12:14.574Z,97677.97
2022-09-28T18:16:16.901Z,97686.09
2022-09-28T18:20:19.176Z,97686.22
2022-09-28T18:24:21.017Z,97693.50
2022-09-28T18:28:23.279Z,97707.47
2022-09-28T18:32:24.908Z,97702.38
2022-09-28T18:36:30.473Z,97707.75
2022-09-28T18:40:33.520Z,97710.59
2022-09-28T18:44:35.464Z,97719.53
2022-09-28T18:48:44.137Z,97719.06
2022-09-28T18:52:47.390Z,97722.69
2022-09-28T18:56:50.207Z,97720.38
2022-09-28T19:00:51.793Z,97720.56
2022-09-28T19:04:53.143Z,97721.66
2022-09-28T19:09:02.545Z,97727.19
2022-09-28T19:13:03.945Z,97735.16
2022-09-28T19:17:05.697Z,97741.38
2022-09-28T19:21:08.339Z,97738.97
2022-09-28T19:25:09.893Z,97740.13
2022-09-28T19:29:11.268Z,97742.91
2022-09-28T19:33:19.697Z,97744.78
2022-09-28T19:37:20.991Z,97754.31
2022-09-28T19:41:44.370Z,97749.31
2022-09-28T19:45:46.821Z,97752.06
2022-09-28T19:49:49.022Z,97758.16
2022-09-28T19:53:50.435Z,97754.78
2022-09-28T19:57:52.015Z,97753.28
2022-09-28T20:02:02.835Z,97756.81
2022-09-28T20:06:04.448Z,97758.75
2022-09-28T20:10:06.134Z,97754.56
2022-09-28T20:14:09.740Z,97756.31
2022-09-28T20:18:12.413Z,97764.16
2022-09-28T20:22:13.772Z,97769.41
2022-09-28T20:26:15.449Z,97764.41
2022-09-28T20:30:23.629Z,97772.31
2022-09-28T20:34:25.086Z,97768.13
2022-09-28T20:38:26.321Z,97773.38
2022-09-28T20:42:34.911Z,97768.28
2022-09-28T20:46:36.877Z,97772.63
2022-09-28T20:50:38.276Z,97775.31
2022-09-28T20:54:39.577Z,97781.44
2022-09-28T20:58:40.889Z,97785.91
2022-09-28T21:02:48.498Z,97780.91
2022-09-28T21:06:49.823Z,97770.72
2022-09-28T21:10:54.738Z,97775.13
2022-09-28T21:14:56.166Z,97773.50
2022-09-28T21:19:04.217Z,97780.56
2022-09-28T21:23:05.500Z,97778.09
2022-09-28T21:27:06.821Z,97773.81
2022-09-28T21:31:10.308Z,97767.75
2022-09-28T21:35:11.780Z,97768.66
2022-09-28T21:39:13.846Z,97778.06
2022-09-28T21:43:21.692Z,97780.75
2022-09-28T21:47:23.014Z,97785.25
2022-09-28T21:51:24.513Z,97776.63
2022-09-28T21:55:25.802Z,97777.53
2022-09-28T21:59:27.486Z,97779.09
2022-09-28T22:03:35.518Z,97772.91
2022-09-28T22:07:38.169Z,97772.03
2022-09-28T22:11:45.515Z,97778.09
2022-09-28T22:15:51.963Z,97777.34
2022-09-28T22:19:53.349Z,97773.22
2022-09-28T22:23:58.408Z,97774.16
2022-09-28T22:27:59.820Z,97772.59
2022-09-28T22:32:03.107Z,97773.53
2022-09-28T22:36:04.603Z,97776.16
2022-09-28T22:40:12.573Z,97784.81
2022-09-28T22:44:20.599Z,97780.63
2022-09-28T22:48:21.860Z,97779.88
2022-09-28T22:52:29.809Z,97783.38
2022-09-28T22:56:37.747Z,97786.03
2022-09-28T23:00:39.081Z,97785.31
2022-09-28T23:04:40.359Z,97775.16
2022-09-28T23:08:42.116Z,97773.59
2022-09-28T23:12:43.620Z,97786.50
2022-09-28T23:16:44.972Z,97776.19
2022-09-28T23:20:52.221Z,97783.91
2022-09-28T23:24:59.715Z,97774.47
2022-09-28T23:29:07.532Z,97774.56
2022-09-28T23:33:15.628Z,97777.22
2022-09-28T23:37:16.933Z,97773.81
2022-09-28T23:41:25.571Z,97779.84
2022-09-28T23:45:27.264Z,97778.25
2022-09-28T23:49:29.560Z,97769.75
2022-09-28T23:53:32.393Z,97771.53
2022-09-28T23:57:33.894Z,97777.56
